sensor_id;sensor_type;location;lat;lon;timestamp;P1;durP1;ratioP1;P2;durP2;ratioP2
54705;SDS011;40603;48.774;8.916;2024-01-11T00:01:36;50.80;;;22.63;;
54705;SDS011;40603;48.774;8.916;2024-01-11T00:04:02;47.40;;;20.33;;
54705;SDS011;40603;48.774;8.916;2024-01-11T00:06:27;45.30;;;19.38;;
54705;SDS011;40603;48.774;8.916;2024-01-11T00:08:52;50.97;;;21.58;;
54705;SDS011;40603;48.774;8.916;2024-01-11T00:11:18;43.72;;;19.33;;
54705;SDS011;40603;48.774;8.916;2024-01-11T00:13:44;46.38;;;19.75;;
54705;SDS011;40603;48.774;8.916;2024-01-11T00:16:09;43.30;;;20.15;;
54705;SDS011;40603;48.774;8.916;2024-01-11T00:18:34;53.80;;;22.10;;
54705;SDS011;40603;48.774;8.916;2024-01-11T00:21:00;44.85;;;20.80;;
54705;SDS011;40603;48.774;8.916;2024-01-11T00:23:25;48.35;;;20.50;;
54705;SDS011;40603;48.774;8.916;2024-01-11T00:25:51;45.30;;;18.60;;
54705;SDS011;40603;48.774;8.916;2024-01-11T00:28:16;45.55;;;20.63;;
54705;SDS011;40603;48.774;8.916;2024-01-11T00:30:41;47.58;;;19.65;;
54705;SDS011;40603;48.774;8.916;2024-01-11T00:33:07;49.05;;;20.60;;
54705;SDS011;40603;48.774;8.916;2024-01-11T00:35:32;51.05;;;19.92;;
54705;SDS011;40603;48.774;8.916;2024-01-11T00:37:57;43.28;;;19.58;;
54705;SDS011;40603;48.774;8.916;2024-01-11T00:40:22;45.33;;;19.75;;
54705;SDS011;40603;48.774;8.916;2024-01-11T00:42:48;47.67;;;20.33;;
54705;SDS011;40603;48.774;8.916;2024-01-11T00:45:13;44.67;;;20.13;;
54705;SDS011;40603;48.774;8.916;2024-01-11T00:47:39;50.00;;;20.23;;
54705;SDS011;40603;48.774;8.916;2024-01-11T00:50:04;45.78;;;19.33;;
54705;SDS011;40603;48.774;8.916;2024-01-11T00:52:30;45.67;;;19.98;;
54705;SDS011;40603;48.774;8.916;2024-01-11T00:54:55;51.25;;;20.92;;
54705;SDS011;40603;48.774;8.916;2024-01-11T00:57:21;48.30;;;20.40;;
54705;SDS011;40603;48.774;8.916;2024-01-11T00:59:46;46.95;;;20.15;;
54705;SDS011;40603;48.774;8.916;2024-01-11T01:02:11;49.42;;;19.13;;
54705;SDS011;40603;48.774;8.916;2024-01-11T01:04:39;45.55;;;18.85;;
54705;SDS011;40603;48.774;8.916;2024-01-11T01:07:05;45.95;;;20.02;;
54705;SDS011;40603;48.774;8.916;2024-01-11T01:09:30;46.95;;;19.38;;
54705;SDS011;40603;48.774;8.916;2024-01-11T01:11:56;42.45;;;18.83;;
54705;SDS011;40603;48.774;8.916;2024-01-11T01:14:21;40.72;;;19.45;;
54705;SDS011;40603;48.774;8.916;2024-01-11T01:16:46;41.13;;;19.17;;
54705;SDS011;40603;48.774;8.916;2024-01-11T01:19:12;49.17;;;21.10;;
54705;SDS011;40603;48.774;8.916;2024-01-11T01:21:37;52.10;;;20.90;;
54705;SDS011;40603;48.774;8.916;2024-01-11T01:24:03;51.75;;;21.10;;
54705;SDS011;40603;48.774;8.916;2024-01-11T01:26:28;45.40;;;19.75;;
54705;SDS011;40603;48.774;8.916;2024-01-11T01:28:53;54.35;;;20.30;;
54705;SDS011;40603;48.774;8.916;2024-01-11T01:31:20;54.80;;;20.00;;
54705;SDS011;40603;48.774;8.916;2024-01-11T01:33:46;46.30;;;21.02;;
54705;SDS011;40603;48.774;8.916;2024-01-11T01:36:11;49.28;;;20.27;;
54705;SDS011;40603;48.774;8.916;2024-01-11T01:38:37;56.42;;;21.13;;
54705;SDS011;40603;48.774;8.916;2024-01-11T01:41:02;57.45;;;21.42;;
54705;SDS011;40603;48.774;8.916;2024-01-11T01:43:28;51.70;;;19.92;;
54705;SDS011;40603;48.774;8.916;2024-01-11T01:45:53;52.58;;;20.63;;
54705;SDS011;40603;48.774;8.916;2024-01-11T01:48:19;48.17;;;20.75;;
54705;SDS011;40603;48.774;8.916;2024-01-11T01:50:44;45.13;;;19.17;;
54705;SDS011;40603;48.774;8.916;2024-01-11T01:53:15;47.72;;;19.75;;
54705;SDS011;40603;48.774;8.916;2024-01-11T01:55:42;49.72;;;21.00;;
54705;SDS011;40603;48.774;8.916;2024-01-11T01:58:07;51.00;;;20.60;;
54705;SDS011;40603;48.774;8.916;2024-01-11T02:00:32;51.58;;;20.88;;
54705;SDS011;40603;48.774;8.916;2024-01-11T02:02:58;42.55;;;19.55;;
54705;SDS011;40603;48.774;8.916;2024-01-11T02:05:23;56.35;;;21.33;;
54705;SDS011;40603;48.774;8.916;2024-01-11T02:07:49;45.92;;;19.85;;
54705;SDS011;40603;48.774;8.916;2024-01-11T02:10:14;48.40;;;19.40;;
54705;SDS011;40603;48.774;8.916;2024-01-11T02:12:40;40.95;;;19.10;;
54705;SDS011;40603;48.774;8.916;2024-01-11T02:15:06;51.20;;;19.65;;
54705;SDS011;40603;48.774;8.916;2024-01-11T02:17:32;49.30;;;19.52;;
54705;SDS011;40603;48.774;8.916;2024-01-11T02:19:57;48.78;;;19.55;;
54705;SDS011;40603;48.774;8.916;2024-01-11T02:22:28;48.58;;;20.30;;
54705;SDS011;40603;48.774;8.916;2024-01-11T02:24:55;41.22;;;19.58;;
54705;SDS011;40603;48.774;8.916;2024-01-11T02:27:21;42.53;;;18.48;;
54705;SDS011;40603;48.774;8.916;2024-01-11T02:29:46;50.65;;;18.45;;
54705;SDS011;40603;48.774;8.916;2024-01-11T02:32:11;44.22;;;19.75;;
54705;SDS011;40603;48.774;8.916;2024-01-11T02:34:37;48.20;;;18.67;;
54705;SDS011;40603;48.774;8.916;2024-01-11T02:37:02;52.15;;;18.83;;
54705;SDS011;40603;48.774;8.916;2024-01-11T02:39:29;51.17;;;20.40;;
54705;SDS011;40603;48.774;8.916;2024-01-11T02:41:56;51.72;;;19.15;;
54705;SDS011;40603;48.774;8.916;2024-01-11T02:44:22;46.97;;;19.52;;
54705;SDS011;40603;48.774;8.916;2024-01-11T02:46:47;47.33;;;20.27;;
54705;SDS011;40603;48.774;8.916;2024-01-11T02:49:12;42.63;;;19.35;;
54705;SDS011;40603;48.774;8.916;2024-01-11T02:51:38;44.20;;;18.75;;
54705;SDS011;40603;48.774;8.916;2024-01-11T02:54:03;44.42;;;19.60;;
54705;SDS011;40603;48.774;8.916;2024-01-11T02:56:28;49.47;;;20.17;;
54705;SDS011;40603;48.774;8.916;2024-01-11T02:58:54;54.42;;;20.38;;
54705;SDS011;40603;48.774;8.916;2024-01-11T03:01:19;38.50;;;18.27;;
54705;SDS011;40603;48.774;8.916;2024-01-11T03:03:44;41.17;;;18.38;;
54705;SDS011;40603;48.774;8.916;2024-01-11T03:06:10;44.95;;;18.88;;
54705;SDS011;40603;48.774;8.916;2024-01-11T03:08:35;54.17;;;20.23;;
54705;SDS011;40603;48.774;8.916;2024-01-11T03:11:00;43.58;;;18.30;;
54705;SDS011;40603;48.774;8.916;2024-01-11T03:13:26;48.20;;;18.83;;
54705;SDS011;40603;48.774;8.916;2024-01-11T03:15:51;41.35;;;18.40;;
54705;SDS011;40603;48.774;8.916;2024-01-11T03:18:17;47.78;;;20.17;;
54705;SDS011;40603;48.774;8.916;2024-01-11T03:20:42;40.88;;;17.13;;
54705;SDS011;40603;48.774;8.916;2024-01-11T03:23:07;50.03;;;19.05;;
54705;SDS011;40603;48.774;8.916;2024-01-11T03:25:33;47.90;;;19.10;;
54705;SDS011;40603;48.774;8.916;2024-01-11T03:27:58;43.67;;;19.70;;
54705;SDS011;40603;48.774;8.916;2024-01-11T03:30:26;48.28;;;18.67;;
54705;SDS011;40603;48.774;8.916;2024-01-11T03:32:52;43.03;;;17.45;;
54705;SDS011;40603;48.774;8.916;2024-01-11T03:35:17;47.50;;;19.75;;
54705;SDS011;40603;48.774;8.916;2024-01-11T03:37:43;45.20;;;18.42;;
54705;SDS011;40603;48.774;8.916;2024-01-11T03:40:08;46.40;;;18.40;;
54705;SDS011;40603;48.774;8.916;2024-01-11T03:42:34;47.10;;;19.33;;
54705;SDS011;40603;48.774;8.916;2024-01-11T03:44:59;44.40;;;19.45;;
54705;SDS011;40603;48.774;8.916;2024-01-11T03:47:24;41.03;;;17.67;;
54705;SDS011;40603;48.774;8.916;2024-01-11T03:49:50;41.13;;;18.08;;
54705;SDS011;40603;48.774;8.916;2024-01-11T03:52:15;44.90;;;18.48;;
54705;SDS011;40603;48.774;8.916;2024-01-11T03:54:40;46.97;;;18.08;;
54705;SDS011;40603;48.774;8.916;2024-01-11T03:57:05;47.05;;;20.13;;
54705;SDS011;40603;48.774;8.916;2024-01-11T03:59:31;41.08;;;18.15;;
54705;SDS011;40603;48.774;8.916;2024-01-11T04:01:57;44.78;;;17.90;;
54705;SDS011;40603;48.774;8.916;2024-01-11T04:04:22;44.28;;;17.65;;
54705;SDS011;40603;48.774;8.916;2024-01-11T04:06:48;42.65;;;17.25;;
54705;SDS011;40603;48.774;8.916;2024-01-11T04:09:13;46.53;;;20.33;;
54705;SDS011;40603;48.774;8.916;2024-01-11T04:11:38;46.20;;;18.20;;
54705;SDS011;40603;48.774;8.916;2024-01-11T04:14:04;47.80;;;18.55;;
54705;SDS011;40603;48.774;8.916;2024-01-11T04:16:29;44.88;;;18.38;;
54705;SDS011;40603;48.774;8.916;2024-01-11T04:18:54;43.22;;;17.98;;
54705;SDS011;40603;48.774;8.916;2024-01-11T04:21:23;41.83;;;17.80;;
54705;SDS011;40603;48.774;8.916;2024-01-11T04:23:48;41.28;;;18.15;;
54705;SDS011;40603;48.774;8.916;2024-01-11T04:26:14;38.22;;;17.42;;
54705;SDS011;40603;48.774;8.916;2024-01-11T04:28:40;41.85;;;17.73;;
54705;SDS011;40603;48.774;8.916;2024-01-11T04:31:05;43.30;;;18.33;;
54705;SDS011;40603;48.774;8.916;2024-01-11T04:33:30;43.45;;;18.58;;
54705;SDS011;40603;48.774;8.916;2024-01-11T04:35:55;43.92;;;17.38;;
54705;SDS011;40603;48.774;8.916;2024-01-11T04:38:21;42.40;;;18.52;;
54705;SDS011;40603;48.774;8.916;2024-01-11T04:40:46;44.25;;;19.58;;
54705;SDS011;40603;48.774;8.916;2024-01-11T04:43:11;41.40;;;17.77;;
54705;SDS011;40603;48.774;8.916;2024-01-11T04:45:37;41.33;;;18.23;;
54705;SDS011;40603;48.774;8.916;2024-01-11T04:48:02;40.25;;;17.83;;
54705;SDS011;40603;48.774;8.916;2024-01-11T04:50:28;39.70;;;17.77;;
54705;SDS011;40603;48.774;8.916;2024-01-11T04:52:53;48.17;;;18.20;;
54705;SDS011;40603;48.774;8.916;2024-01-11T04:55:18;39.38;;;17.13;;
54705;SDS011;40603;48.774;8.916;2024-01-11T04:57:43;46.65;;;18.88;;
54705;SDS011;40603;48.774;8.916;2024-01-11T05:00:09;47.13;;;18.48;;
54705;SDS011;40603;48.774;8.916;2024-01-11T05:02:35;46.58;;;20.50;;
54705;SDS011;40603;48.774;8.916;2024-01-11T05:05:00;55.75;;;20.67;;
54705;SDS011;40603;48.774;8.916;2024-01-11T05:07:26;48.10;;;19.90;;
54705;SDS011;40603;48.774;8.916;2024-01-11T05:09:52;49.85;;;20.83;;
54705;SDS011;40603;48.774;8.916;2024-01-11T05:12:17;51.97;;;20.23;;
54705;SDS011;40603;48.774;8.916;2024-01-11T05:14:43;51.88;;;21.85;;
54705;SDS011;40603;48.774;8.916;2024-01-11T05:17:08;53.22;;;21.50;;
54705;SDS011;40603;48.774;8.916;2024-01-11T05:19:33;46.85;;;19.00;;
54705;SDS011;40603;48.774;8.916;2024-01-11T05:21:59;57.80;;;22.65;;
54705;SDS011;40603;48.774;8.916;2024-01-11T05:24:24;55.13;;;22.08;;
54705;SDS011;40603;48.774;8.916;2024-01-11T05:26:49;49.50;;;22.15;;
54705;SDS011;40603;48.774;8.916;2024-01-11T05:29:15;44.28;;;19.00;;
54705;SDS011;40603;48.774;8.916;2024-01-11T05:31:40;50.35;;;20.45;;
54705;SDS011;40603;48.774;8.916;2024-01-11T05:34:05;43.05;;;19.92;;
54705;SDS011;40603;48.774;8.916;2024-01-11T05:36:30;50.05;;;20.10;;
54705;SDS011;40603;48.774;8.916;2024-01-11T05:38:56;55.88;;;21.83;;
54705;SDS011;40603;48.774;8.916;2024-01-11T05:41:21;51.85;;;20.40;;
54705;SDS011;40603;48.774;8.916;2024-01-11T05:43:46;50.55;;;20.95;;
54705;SDS011;40603;48.774;8.916;2024-01-11T05:46:12;46.13;;;19.92;;
54705;SDS011;40603;48.774;8.916;2024-01-11T05:48:37;53.55;;;22.98;;
54705;SDS011;40603;48.774;8.916;2024-01-11T05:51:02;52.90;;;22.00;;
54705;SDS011;40603;48.774;8.916;2024-01-11T05:53:28;57.92;;;22.20;;
54705;SDS011;40603;48.774;8.916;2024-01-11T05:55:54;54.50;;;24.00;;
54705;SDS011;40603;48.774;8.916;2024-01-11T05:58:19;48.78;;;19.98;;
54705;SDS011;40603;48.774;8.916;2024-01-11T06:00:45;42.03;;;18.88;;
54705;SDS011;40603;48.774;8.916;2024-01-11T06:03:11;40.28;;;19.17;;
54705;SDS011;40603;48.774;8.916;2024-01-11T06:05:37;45.88;;;18.65;;
54705;SDS011;40603;48.774;8.916;2024-01-11T06:08:03;51.28;;;19.02;;
54705;SDS011;40603;48.774;8.916;2024-01-11T06:10:28;42.17;;;17.88;;
54705;SDS011;40603;48.774;8.916;2024-01-11T06:12:53;40.97;;;17.52;;
54705;SDS011;40603;48.774;8.916;2024-01-11T06:15:19;48.28;;;20.40;;
54705;SDS011;40603;48.774;8.916;2024-01-11T06:17:44;45.53;;;19.40;;
54705;SDS011;40603;48.774;8.916;2024-01-11T06:20:10;48.00;;;19.67;;
54705;SDS011;40603;48.774;8.916;2024-01-11T06:22:36;48.50;;;19.33;;
54705;SDS011;40603;48.774;8.916;2024-01-11T06:25:01;46.65;;;18.40;;
54705;SDS011;40603;48.774;8.916;2024-01-11T06:27:27;50.20;;;18.45;;
54705;SDS011;40603;48.774;8.916;2024-01-11T06:29:52;45.25;;;17.67;;
54705;SDS011;40603;48.774;8.916;2024-01-11T06:32:17;48.25;;;20.30;;
54705;SDS011;40603;48.774;8.916;2024-01-11T06:34:43;45.63;;;19.02;;
54705;SDS011;40603;48.774;8.916;2024-01-11T06:37:11;41.92;;;18.50;;
54705;SDS011;40603;48.774;8.916;2024-01-11T06:39:36;45.72;;;18.92;;
54705;SDS011;40603;48.774;8.916;2024-01-11T06:42:02;52.80;;;20.02;;
54705;SDS011;40603;48.774;8.916;2024-01-11T06:44:27;46.90;;;19.27;;
54705;SDS011;40603;48.774;8.916;2024-01-11T06:46:52;49.10;;;18.95;;
54705;SDS011;40603;48.774;8.916;2024-01-11T06:49:18;46.42;;;18.80;;
54705;SDS011;40603;48.774;8.916;2024-01-11T06:51:43;51.47;;;19.15;;
54705;SDS011;40603;48.774;8.916;2024-01-11T06:54:08;43.15;;;18.08;;
54705;SDS011;40603;48.774;8.916;2024-01-11T06:56:33;53.28;;;20.55;;
54705;SDS011;40603;48.774;8.916;2024-01-11T06:58:59;48.72;;;20.05;;
54705;SDS011;40603;48.774;8.916;2024-01-11T07:01:24;54.75;;;19.42;;
54705;SDS011;40603;48.774;8.916;2024-01-11T07:03:50;50.55;;;18.83;;
54705;SDS011;40603;48.774;8.916;2024-01-11T07:06:15;45.55;;;19.38;;
54705;SDS011;40603;48.774;8.916;2024-01-11T07:08:41;48.20;;;18.92;;
54705;SDS011;40603;48.774;8.916;2024-01-11T07:11:06;49.22;;;19.98;;
54705;SDS011;40603;48.774;8.916;2024-01-11T07:13:32;49.50;;;20.20;;
54705;SDS011;40603;48.774;8.916;2024-01-11T07:15:58;48.80;;;19.13;;
54705;SDS011;40603;48.774;8.916;2024-01-11T07:18:24;52.88;;;20.13;;
54705;SDS011;40603;48.774;8.916;2024-01-11T07:20:50;52.22;;;20.92;;
54705;SDS011;40603;48.774;8.916;2024-01-11T07:23:16;52.40;;;22.25;;
54705;SDS011;40603;48.774;8.916;2024-01-11T07:25:42;55.83;;;22.30;;
54705;SDS011;40603;48.774;8.916;2024-01-11T07:28:07;52.15;;;20.67;;
54705;SDS011;40603;48.774;8.916;2024-01-11T07:30:33;55.80;;;23.63;;
54705;SDS011;40603;48.774;8.916;2024-01-11T07:32:59;63.97;;;25.25;;
54705;SDS011;40603;48.774;8.916;2024-01-11T07:35:24;66.28;;;25.27;;
54705;SDS011;40603;48.774;8.916;2024-01-11T07:37:49;67.32;;;27.35;;
54705;SDS011;40603;48.774;8.916;2024-01-11T07:40:15;68.40;;;26.90;;
54705;SDS011;40603;48.774;8.916;2024-01-11T07:42:41;57.05;;;22.48;;
54705;SDS011;40603;48.774;8.916;2024-01-11T07:45:07;60.50;;;24.77;;
54705;SDS011;40603;48.774;8.916;2024-01-11T07:47:34;68.22;;;27.27;;
54705;SDS011;40603;48.774;8.916;2024-01-11T07:49:59;62.72;;;27.25;;
54705;SDS011;40603;48.774;8.916;2024-01-11T07:52:25;58.90;;;24.17;;
54705;SDS011;40603;48.774;8.916;2024-01-11T07:54:50;65.05;;;24.60;;
54705;SDS011;40603;48.774;8.916;2024-01-11T07:57:15;58.97;;;24.98;;
54705;SDS011;40603;48.774;8.916;2024-01-11T07:59:41;63.88;;;25.75;;
54705;SDS011;40603;48.774;8.916;2024-01-11T08:02:06;55.70;;;23.05;;
54705;SDS011;40603;48.774;8.916;2024-01-11T08:04:32;59.00;;;25.33;;
54705;SDS011;40603;48.774;8.916;2024-01-11T08:06:57;58.60;;;24.08;;
54705;SDS011;40603;48.774;8.916;2024-01-11T08:09:26;63.45;;;26.08;;
54705;SDS011;40603;48.774;8.916;2024-01-11T08:11:52;54.42;;;23.98;;
54705;SDS011;40603;48.774;8.916;2024-01-11T08:14:19;63.92;;;25.20;;
54705;SDS011;40603;48.774;8.916;2024-01-11T08:16:45;62.47;;;24.20;;
54705;SDS011;40603;48.774;8.916;2024-01-11T08:19:10;60.45;;;23.35;;
54705;SDS011;40603;48.774;8.916;2024-01-11T08:21:35;67.07;;;24.38;;
54705;SDS011;40603;48.774;8.916;2024-01-11T08:24:01;60.45;;;25.75;;
54705;SDS011;40603;48.774;8.916;2024-01-11T08:26:27;55.70;;;23.67;;
54705;SDS011;40603;48.774;8.916;2024-01-11T08:28:53;59.42;;;23.70;;
54705;SDS011;40603;48.774;8.916;2024-01-11T08:31:18;57.38;;;24.15;;
54705;SDS011;40603;48.774;8.916;2024-01-11T08:33:44;56.58;;;22.90;;
54705;SDS011;40603;48.774;8.916;2024-01-11T08:36:09;54.83;;;23.75;;
54705;SDS011;40603;48.774;8.916;2024-01-11T08:38:36;55.30;;;22.95;;
54705;SDS011;40603;48.774;8.916;2024-01-11T08:41:01;61.15;;;23.75;;
54705;SDS011;40603;48.774;8.916;2024-01-11T08:43:28;57.63;;;23.40;;
54705;SDS011;40603;48.774;8.916;2024-01-11T08:45:53;55.08;;;22.52;;
54705;SDS011;40603;48.774;8.916;2024-01-11T08:48:19;58.38;;;23.60;;
54705;SDS011;40603;48.774;8.916;2024-01-11T08:50:44;64.70;;;24.25;;
54705;SDS011;40603;48.774;8.916;2024-01-11T08:53:10;58.28;;;23.73;;
54705;SDS011;40603;48.774;8.916;2024-01-11T08:55:35;58.58;;;24.17;;
54705;SDS011;40603;48.774;8.916;2024-01-11T08:58:00;52.45;;;23.08;;
54705;SDS011;40603;48.774;8.916;2024-01-11T09:00:26;54.90;;;23.13;;
54705;SDS011;40603;48.774;8.916;2024-01-11T09:02:51;60.15;;;23.52;;
54705;SDS011;40603;48.774;8.916;2024-01-11T09:05:17;59.72;;;23.45;;
54705;SDS011;40603;48.774;8.916;2024-01-11T09:07:42;55.35;;;23.92;;
54705;SDS011;40603;48.774;8.916;2024-01-11T09:10:07;51.88;;;22.92;;
54705;SDS011;40603;48.774;8.916;2024-01-11T09:12:39;58.80;;;24.73;;
54705;SDS011;40603;48.774;8.916;2024-01-11T09:15:04;51.17;;;24.40;;
54705;SDS011;40603;48.774;8.916;2024-01-11T09:17:30;54.90;;;23.35;;
54705;SDS011;40603;48.774;8.916;2024-01-11T09:19:55;58.88;;;22.33;;
54705;SDS011;40603;48.774;8.916;2024-01-11T09:22:20;60.97;;;25.17;;
54705;SDS011;40603;48.774;8.916;2024-01-11T09:24:46;51.63;;;22.75;;
54705;SDS011;40603;48.774;8.916;2024-01-11T09:27:11;56.22;;;25.80;;
54705;SDS011;40603;48.774;8.916;2024-01-11T09:29:38;55.95;;;24.73;;
54705;SDS011;40603;48.774;8.916;2024-01-11T09:34:32;59.13;;;23.48;;
54705;SDS011;40603;48.774;8.916;2024-01-11T09:36:57;60.42;;;24.98;;
54705;SDS011;40603;48.774;8.916;2024-01-11T09:39:23;55.10;;;25.02;;
54705;SDS011;40603;48.774;8.916;2024-01-11T09:41:58;56.08;;;24.80;;
54705;SDS011;40603;48.774;8.916;2024-01-11T09:44:25;62.53;;;26.80;;
54705;SDS011;40603;48.774;8.916;2024-01-11T09:46:51;56.88;;;25.75;;
54705;SDS011;40603;48.774;8.916;2024-01-11T09:49:17;52.72;;;24.08;;
54705;SDS011;40603;48.774;8.916;2024-01-11T09:51:44;57.67;;;26.33;;
54705;SDS011;40603;48.774;8.916;2024-01-11T09:54:11;51.65;;;24.00;;
54705;SDS011;40603;48.774;8.916;2024-01-11T09:56:37;53.22;;;24.60;;
54705;SDS011;40603;48.774;8.916;2024-01-11T09:59:02;52.38;;;24.20;;
54705;SDS011;40603;48.774;8.916;2024-01-11T10:01:31;63.35;;;26.65;;
54705;SDS011;40603;48.774;8.916;2024-01-11T10:03:56;56.50;;;24.05;;
54705;SDS011;40603;48.774;8.916;2024-01-11T10:06:21;55.38;;;24.17;;
54705;SDS011;40603;48.774;8.916;2024-01-11T10:08:49;52.70;;;23.75;;
54705;SDS011;40603;48.774;8.916;2024-01-11T10:11:14;54.72;;;25.25;;
54705;SDS011;40603;48.774;8.916;2024-01-11T10:13:39;55.88;;;25.38;;
54705;SDS011;40603;48.774;8.916;2024-01-11T10:16:09;51.85;;;24.20;;
54705;SDS011;40603;48.774;8.916;2024-01-11T10:18:35;57.00;;;25.75;;
54705;SDS011;40603;48.774;8.916;2024-01-11T10:21:01;57.42;;;24.65;;
54705;SDS011;40603;48.774;8.916;2024-01-11T10:23:26;55.78;;;25.02;;
54705;SDS011;40603;48.774;8.916;2024-01-11T10:25:54;60.75;;;25.30;;
54705;SDS011;40603;48.774;8.916;2024-01-11T10:28:21;55.10;;;24.80;;
54705;SDS011;40603;48.774;8.916;2024-01-11T10:30:46;53.25;;;25.67;;
54705;SDS011;40603;48.774;8.916;2024-01-11T10:33:12;53.80;;;24.73;;
54705;SDS011;40603;48.774;8.916;2024-01-11T10:35:37;49.30;;;22.63;;
54705;SDS011;40603;48.774;8.916;2024-01-11T10:38:02;53.22;;;25.25;;
54705;SDS011;40603;48.774;8.916;2024-01-11T10:40:34;54.35;;;23.85;;
54705;SDS011;40603;48.774;8.916;2024-01-11T10:43:00;55.20;;;24.60;;
54705;SDS011;40603;48.774;8.916;2024-01-11T10:45:26;51.33;;;23.33;;
54705;SDS011;40603;48.774;8.916;2024-01-11T10:47:56;56.92;;;25.55;;
54705;SDS011;40603;48.774;8.916;2024-01-11T10:50:22;59.30;;;26.60;;
54705;SDS011;40603;48.774;8.916;2024-01-11T10:52:54;54.65;;;24.40;;
54705;SDS011;40603;48.774;8.916;2024-01-11T10:55:26;56.10;;;24.25;;
54705;SDS011;40603;48.774;8.916;2024-01-11T10:57:51;51.25;;;23.75;;
54705;SDS011;40603;48.774;8.916;2024-01-11T11:00:18;57.78;;;26.45;;
54705;SDS011;40603;48.774;8.916;2024-01-11T11:02:43;55.67;;;25.15;;
54705;SDS011;40603;48.774;8.916;2024-01-11T11:05:09;60.47;;;24.90;;
54705;SDS011;40603;48.774;8.916;2024-01-11T11:07:35;49.10;;;22.33;;
54705;SDS011;40603;48.774;8.916;2024-01-11T11:10:02;52.10;;;25.40;;
54705;SDS011;40603;48.774;8.916;2024-01-11T11:12:29;50.83;;;24.50;;
54705;SDS011;40603;48.774;8.916;2024-01-11T11:14:56;51.25;;;24.25;;
54705;SDS011;40603;48.774;8.916;2024-01-11T11:17:21;55.63;;;24.25;;
54705;SDS011;40603;48.774;8.916;2024-01-11T11:19:47;53.38;;;24.48;;
54705;SDS011;40603;48.774;8.916;2024-01-11T11:22:13;50.15;;;24.20;;
54705;SDS011;40603;48.774;8.916;2024-01-11T11:24:40;58.15;;;25.92;;
54705;SDS011;40603;48.774;8.916;2024-01-11T11:27:05;56.78;;;26.80;;
54705;SDS011;40603;48.774;8.916;2024-01-11T11:29:32;48.83;;;24.33;;
54705;SDS011;40603;48.774;8.916;2024-01-11T11:31:57;51.88;;;24.80;;
54705;SDS011;40603;48.774;8.916;2024-01-11T11:34:39;55.45;;;26.13;;
54705;SDS011;40603;48.774;8.916;2024-01-11T11:37:06;62.60;;;26.15;;
54705;SDS011;40603;48.774;8.916;2024-01-11T11:39:31;60.72;;;25.20;;
54705;SDS011;40603;48.774;8.916;2024-01-11T11:41:57;53.15;;;24.45;;
54705;SDS011;40603;48.774;8.916;2024-01-11T11:44:24;53.47;;;24.15;;
54705;SDS011;40603;48.774;8.916;2024-01-11T11:46:49;48.70;;;24.67;;
54705;SDS011;40603;48.774;8.916;2024-01-11T11:49:15;52.80;;;25.30;;
54705;SDS011;40603;48.774;8.916;2024-01-11T11:51:40;55.60;;;25.65;;
54705;SDS011;40603;48.774;8.916;2024-01-11T11:54:06;53.53;;;24.77;;
54705;SDS011;40603;48.774;8.916;2024-01-11T11:56:34;48.58;;;24.52;;
54705;SDS011;40603;48.774;8.916;2024-01-11T11:59:00;50.45;;;24.30;;
54705;SDS011;40603;48.774;8.916;2024-01-11T12:01:26;50.58;;;24.25;;
54705;SDS011;40603;48.774;8.916;2024-01-11T12:03:52;46.13;;;22.35;;
54705;SDS011;40603;48.774;8.916;2024-01-11T12:06:18;51.05;;;24.70;;
54705;SDS011;40603;48.774;8.916;2024-01-11T12:08:45;52.78;;;24.20;;
54705;SDS011;40603;48.774;8.916;2024-01-11T12:11:17;49.05;;;23.08;;
54705;SDS011;40603;48.774;8.916;2024-01-11T12:13:43;50.53;;;24.27;;
54705;SDS011;40603;48.774;8.916;2024-01-11T12:16:09;49.72;;;21.52;;
54705;SDS011;40603;48.774;8.916;2024-01-11T12:18:35;55.10;;;22.42;;
54705;SDS011;40603;48.774;8.916;2024-01-11T12:21:00;45.90;;;21.77;;
54705;SDS011;40603;48.774;8.916;2024-01-11T12:23:26;50.25;;;22.48;;
54705;SDS011;40603;48.774;8.916;2024-01-11T12:25:54;49.72;;;24.17;;
54705;SDS011;40603;48.774;8.916;2024-01-11T12:28:20;43.97;;;21.33;;
54705;SDS011;40603;48.774;8.916;2024-01-11T12:30:46;47.28;;;21.50;;
54705;SDS011;40603;48.774;8.916;2024-01-11T12:33:11;45.83;;;21.92;;
54705;SDS011;40603;48.774;8.916;2024-01-11T12:35:37;47.65;;;23.00;;
54705;SDS011;40603;48.774;8.916;2024-01-11T12:38:05;41.58;;;21.08;;
54705;SDS011;40603;48.774;8.916;2024-01-11T12:40:34;48.38;;;21.58;;
54705;SDS011;40603;48.774;8.916;2024-01-11T12:43:02;47.03;;;22.13;;
54705;SDS011;40603;48.774;8.916;2024-01-11T12:45:28;47.85;;;22.45;;
54705;SDS011;40603;48.774;8.916;2024-01-11T12:47:54;47.75;;;22.13;;
54705;SDS011;40603;48.774;8.916;2024-01-11T12:50:21;53.88;;;24.15;;
54705;SDS011;40603;48.774;8.916;2024-01-11T12:52:47;47.85;;;22.90;;
54705;SDS011;40603;48.774;8.916;2024-01-11T12:55:29;51.05;;;22.92;;
54705;SDS011;40603;48.774;8.916;2024-01-11T12:58:06;48.50;;;22.13;;
54705;SDS011;40603;48.774;8.916;2024-01-11T13:00:34;49.58;;;23.33;;
54705;SDS011;40603;48.774;8.916;2024-01-11T13:03:00;45.83;;;22.63;;
54705;SDS011;40603;48.774;8.916;2024-01-11T13:05:25;41.38;;;20.85;;
54705;SDS011;40603;48.774;8.916;2024-01-11T13:07:51;44.05;;;21.27;;
54705;SDS011;40603;48.774;8.916;2024-01-11T13:10:16;44.10;;;21.05;;
54705;SDS011;40603;48.774;8.916;2024-01-11T13:12:42;47.30;;;22.02;;
54705;SDS011;40603;48.774;8.916;2024-01-11T13:15:07;46.60;;;22.33;;
54705;SDS011;40603;48.774;8.916;2024-01-11T13:17:33;45.20;;;22.80;;
54705;SDS011;40603;48.774;8.916;2024-01-11T13:19:58;46.00;;;22.95;;
54705;SDS011;40603;48.774;8.916;2024-01-11T13:22:24;49.10;;;23.05;;
54705;SDS011;40603;48.774;8.916;2024-01-11T13:24:49;48.17;;;22.08;;
54705;SDS011;40603;48.774;8.916;2024-01-11T13:27:15;47.08;;;22.85;;
54705;SDS011;40603;48.774;8.916;2024-01-11T13:29:40;47.67;;;22.77;;
54705;SDS011;40603;48.774;8.916;2024-01-11T13:32:05;53.15;;;23.45;;
54705;SDS011;40603;48.774;8.916;2024-01-11T13:34:31;45.15;;;22.27;;
54705;SDS011;40603;48.774;8.916;2024-01-11T13:36:56;49.17;;;22.77;;
54705;SDS011;40603;48.774;8.916;2024-01-11T13:39:24;46.83;;;22.33;;
54705;SDS011;40603;48.774;8.916;2024-01-11T13:41:50;48.13;;;23.75;;
54705;SDS011;40603;48.774;8.916;2024-01-11T13:44:15;46.95;;;22.88;;
54705;SDS011;40603;48.774;8.916;2024-01-11T13:46:41;51.72;;;23.20;;
54705;SDS011;40603;48.774;8.916;2024-01-11T13:49:06;48.20;;;23.77;;
54705;SDS011;40603;48.774;8.916;2024-01-11T13:51:31;52.03;;;22.92;;
54705;SDS011;40603;48.774;8.916;2024-01-11T13:53:57;47.83;;;23.33;;
54705;SDS011;40603;48.774;8.916;2024-01-11T13:56:24;50.30;;;23.70;;
54705;SDS011;40603;48.774;8.916;2024-01-11T13:58:49;50.70;;;24.42;;
54705;SDS011;40603;48.774;8.916;2024-01-11T14:01:15;48.25;;;23.33;;
54705;SDS011;40603;48.774;8.916;2024-01-11T14:03:40;45.33;;;22.60;;
54705;SDS011;40603;48.774;8.916;2024-01-11T14:06:06;47.60;;;22.50;;
54705;SDS011;40603;48.774;8.916;2024-01-11T14:08:31;50.40;;;24.00;;
54705;SDS011;40603;48.774;8.916;2024-01-11T14:10:56;46.17;;;22.33;;
54705;SDS011;40603;48.774;8.916;2024-01-11T14:13:22;57.23;;;23.67;;
54705;SDS011;40603;48.774;8.916;2024-01-11T14:15:47;50.90;;;23.17;;